sensor_id;sensor_type;location;lat;lon;timestamp;P1;durP1;ratioP1;P2;durP2;ratioP2
68812;SDS011;55808;48.112;11.552;2022-11-15T00:01:36;25.50;;;19.70;;
68812;SDS011;55808;48.112;11.552;2022-11-15T00:04:05;27.37;;;19.03;;
68812;SDS011;55808;48.112;11.552;2022-11-15T00:06:31;21.55;;;17.67;;
68812;SDS011;55808;48.112;11.552;2022-11-15T00:08:57;27.73;;;18.30;;
68812;SDS011;55808;48.112;11.552;2022-11-15T00:11:24;21.10;;;17.85;;
68812;SDS011;55808;48.112;11.552;2022-11-15T00:13:49;26.93;;;17.87;;
68812;SDS011;55808;48.112;11.552;2022-11-15T00:16:15;30.53;;;18.23;;
68812;SDS011;55808;48.112;11.552;2022-11-15T00:18:41;28.33;;;17.80;;
68812;SDS011;55808;48.112;11.552;2022-11-15T00:21:09;19.70;;;17.10;;
68812;SDS011;55808;48.112;11.552;2022-11-15T00:23:36;31.25;;;19.35;;
68812;SDS011;55808;48.112;11.552;2022-11-15T00:26:02;24.63;;;17.50;;
68812;SDS011;55808;48.112;11.552;2022-11-15T00:28:28;28.08;;;18.70;;
68812;SDS011;55808;48.112;11.552;2022-11-15T00:30:59;21.77;;;18.45;;
68812;SDS011;55808;48.112;11.552;2022-11-15T00:33:26;20.50;;;16.80;;
68812;SDS011;55808;48.112;11.552;2022-11-15T00:35:51;26.23;;;18.13;;
68812;SDS011;55808;48.112;11.552;2022-11-15T00:38:17;31.83;;;18.00;;
68812;SDS011;55808;48.112;11.552;2022-11-15T00:40:42;25.63;;;17.90;;
68812;SDS011;55808;48.112;11.552;2022-11-15T00:43:08;26.67;;;17.43;;
68812;SDS011;55808;48.112;11.552;2022-11-15T00:45:34;25.33;;;17.77;;
68812;SDS011;55808;48.112;11.552;2022-11-15T00:47:59;21.13;;;17.60;;
68812;SDS011;55808;48.112;11.552;2022-11-15T00:50:25;19.43;;;17.53;;
68812;SDS011;55808;48.112;11.552;2022-11-15T00:52:50;20.50;;;17.33;;
68812;SDS011;55808;48.112;11.552;2022-11-15T00:55:16;17.67;;;15.93;;
68812;SDS011;55808;48.112;11.552;2022-11-15T00:57:43;22.60;;;17.95;;
68812;SDS011;55808;48.112;11.552;2022-11-15T01:00:09;28.23;;;19.37;;
68812;SDS011;55808;48.112;11.552;2022-11-15T01:02:35;19.80;;;16.13;;
68812;SDS011;55808;48.112;11.552;2022-11-15T01:05:01;18.50;;;16.73;;
68812;SDS011;55808;48.112;11.552;2022-11-15T01:07:27;22.00;;;18.38;;
68812;SDS011;55808;48.112;11.552;2022-11-15T01:09:53;26.63;;;18.20;;
68812;SDS011;55808;48.112;11.552;2022-11-15T01:12:18;18.53;;;16.90;;
68812;SDS011;55808;48.112;11.552;2022-11-15T01:14:44;19.83;;;17.80;;
68812;SDS011;55808;48.112;11.552;2022-11-15T01:17:09;34.27;;;18.97;;
68812;SDS011;55808;48.112;11.552;2022-11-15T01:19:35;35.23;;;20.13;;
68812;SDS011;55808;48.112;11.552;2022-11-15T01:22:01;19.00;;;17.20;;
68812;SDS011;55808;48.112;11.552;2022-11-15T01:24:26;29.47;;;18.90;;
68812;SDS011;55808;48.112;11.552;2022-11-15T01:26:52;21.90;;;19.07;;
68812;SDS011;55808;48.112;11.552;2022-11-15T01:29:18;21.73;;;19.37;;
68812;SDS011;55808;48.112;11.552;2022-11-15T01:31:43;26.43;;;19.90;;
68812;SDS011;55808;48.112;11.552;2022-11-15T01:34:09;20.53;;;18.53;;
68812;SDS011;55808;48.112;11.552;2022-11-15T01:36:35;25.63;;;19.67;;
68812;SDS011;55808;48.112;11.552;2022-11-15T01:39:00;34.47;;;21.13;;
68812;SDS011;55808;48.112;11.552;2022-11-15T01:41:28;24.20;;;20.47;;
68812;SDS011;55808;48.112;11.552;2022-11-15T01:43:56;26.38;;;22.35;;
68812;SDS011;55808;48.112;11.552;2022-11-15T01:46:42;28.27;;;25.65;;
68812;SDS011;55808;48.112;11.552;2022-11-15T01:49:14;30.92;;;28.33;;
68812;SDS011;55808;48.112;11.552;2022-11-15T01:51:41;30.20;;;27.42;;
68812;SDS011;55808;48.112;11.552;2022-11-15T01:54:08;134.67;;;93.90;;
68812;SDS011;55808;48.112;11.552;2022-11-15T01:56:41;142.93;;;93.68;;
68812;SDS011;55808;48.112;11.552;2022-11-15T01:59:15;165.63;;;99.28;;
68812;SDS011;55808;48.112;11.552;2022-11-15T02:01:41;156.50;;;97.13;;
68812;SDS011;55808;48.112;11.552;2022-11-15T02:04:10;168.13;;;97.05;;
68812;SDS011;55808;48.112;11.552;2022-11-15T02:06:57;152.10;;;95.68;;
68812;SDS011;55808;48.112;11.552;2022-11-15T02:09:23;159.57;;;95.72;;
68812;SDS011;55808;48.112;11.552;2022-11-15T02:11:50;166.13;;;97.63;;
68812;SDS011;55808;48.112;11.552;2022-11-15T02:14:19;153.65;;;96.32;;
68812;SDS011;55808;48.112;11.552;2022-11-15T02:22:21;168.23;;;96.13;;
68812;SDS011;55808;48.112;11.552;2022-11-15T02:31:03;163.23;;;96.30;;
68812;SDS011;55808;48.112;11.552;2022-11-15T02:36:54;160.13;;;96.18;;
68812;SDS011;55808;48.112;11.552;2022-11-15T02:39:55;157.38;;;94.35;;
68812;SDS011;55808;48.112;11.552;2022-11-15T02:42:33;164.95;;;96.25;;
68812;SDS011;55808;48.112;11.552;2022-11-15T02:45:30;172.07;;;96.53;;
68812;SDS011;55808;48.112;11.552;2022-11-15T02:48:00;171.70;;;96.72;;
68812;SDS011;55808;48.112;11.552;2022-11-15T02:50:28;185.60;;;98.70;;
68812;SDS011;55808;48.112;11.552;2022-11-15T02:52:56;153.80;;;95.28;;
68812;SDS011;55808;48.112;11.552;2022-11-15T02:55:29;168.50;;;96.07;;
68812;SDS011;55808;48.112;11.552;2022-11-15T03:01:00;187.32;;;99.53;;
68812;SDS011;55808;48.112;11.552;2022-11-15T03:06:35;154.27;;;94.70;;
68812;SDS011;55808;48.112;11.552;2022-11-15T03:12:04;174.90;;;97.95;;
68812;SDS011;55808;48.112;11.552;2022-11-15T03:14:37;170.60;;;96.55;;
68812;SDS011;55808;48.112;11.552;2022-11-15T03:19:59;184.55;;;98.38;;
68812;SDS011;55808;48.112;11.552;2022-11-15T03:22:29;192.10;;;100.80;;
68812;SDS011;55808;48.112;11.552;2022-11-15T03:25:04;150.23;;;93.60;;
68812;SDS011;55808;48.112;11.552;2022-11-15T03:27:35;166.15;;;96.07;;
68812;SDS011;55808;48.112;11.552;2022-11-15T03:30:05;159.52;;;94.10;;
68812;SDS011;55808;48.112;11.552;2022-11-15T03:32:34;193.70;;;100.53;;
68812;SDS011;55808;48.112;11.552;2022-11-15T03:35:12;164.32;;;94.95;;
68812;SDS011;55808;48.112;11.552;2022-11-15T03:40:24;156.57;;;95.03;;
68812;SDS011;55808;48.112;11.552;2022-11-15T03:46:16;164.25;;;95.65;;
68812;SDS011;55808;48.112;11.552;2022-11-15T03:48:53;153.13;;;92.80;;
68812;SDS011;55808;48.112;11.552;2022-11-15T03:51:25;180.95;;;98.15;;
68812;SDS011;55808;48.112;11.552;2022-11-15T03:53:51;155.70;;;94.90;;
68812;SDS011;55808;48.112;11.552;2022-11-15T03:56:17;168.57;;;94.83;;
68812;SDS011;55808;48.112;11.552;2022-11-15T03:58:42;178.60;;;97.93;;
68812;SDS011;55808;48.112;11.552;2022-11-15T04:01:08;161.17;;;93.70;;
68812;SDS011;55808;48.112;11.552;2022-11-15T04:03:33;149.67;;;91.90;;
68812;SDS011;55808;48.112;11.552;2022-11-15T04:05:59;157.53;;;93.70;;
68812;SDS011;55808;48.112;11.552;2022-11-15T04:08:24;148.23;;;91.67;;
68812;SDS011;55808;48.112;11.552;2022-11-15T04:10:50;150.37;;;92.63;;
68812;SDS011;55808;48.112;11.552;2022-11-15T04:13:16;158.20;;;93.72;;
68812;SDS011;55808;48.112;11.552;2022-11-15T04:15:42;149.93;;;92.10;;
68812;SDS011;55808;48.112;11.552;2022-11-15T04:18:07;155.53;;;93.10;;
68812;SDS011;55808;48.112;11.552;2022-11-15T04:20:33;158.03;;;93.13;;
68812;SDS011;55808;48.112;11.552;2022-11-15T04:23:19;157.60;;;93.00;;
68812;SDS011;55808;48.112;11.552;2022-11-15T04:26:11;171.40;;;95.93;;
68812;SDS011;55808;48.112;11.552;2022-11-15T04:28:41;162.20;;;93.30;;
68812;SDS011;55808;48.112;11.552;2022-11-15T04:31:25;164.02;;;94.97;;
68812;SDS011;55808;48.112;11.552;2022-11-15T04:33:51;157.13;;;94.67;;
68812;SDS011;55808;48.112;11.552;2022-11-15T04:36:17;156.67;;;92.97;;
68812;SDS011;55808;48.112;11.552;2022-11-15T04:39:01;164.88;;;96.53;;
68812;SDS011;55808;48.112;11.552;2022-11-15T04:41:28;153.57;;;92.10;;
68812;SDS011;55808;48.112;11.552;2022-11-15T04:43:54;168.00;;;95.40;;
68812;SDS011;55808;48.112;11.552;2022-11-15T04:46:20;174.97;;;98.10;;
68812;SDS011;55808;48.112;11.552;2022-11-15T04:48:46;152.45;;;92.82;;
68812;SDS011;55808;48.112;11.552;2022-11-15T04:51:12;155.57;;;93.33;;
68812;SDS011;55808;48.112;11.552;2022-11-15T04:53:37;154.43;;;92.90;;
68812;SDS011;55808;48.112;11.552;2022-11-15T04:56:03;157.77;;;92.77;;
68812;SDS011;55808;48.112;11.552;2022-11-15T04:58:29;160.80;;;93.00;;
68812;SDS011;55808;48.112;11.552;2022-11-15T05:00:55;155.60;;;93.47;;
68812;SDS011;55808;48.112;11.552;2022-11-15T05:03:20;157.93;;;93.27;;
68812;SDS011;55808;48.112;11.552;2022-11-15T05:06:05;159.95;;;93.88;;
68812;SDS011;55808;48.112;11.552;2022-11-15T05:08:31;162.77;;;95.32;;
68812;SDS011;55808;48.112;11.552;2022-11-15T05:10:58;154.00;;;92.33;;
68812;SDS011;55808;48.112;11.552;2022-11-15T05:13:24;159.65;;;93.80;;
68812;SDS011;55808;48.112;11.552;2022-11-15T05:15:49;161.80;;;95.23;;
68812;SDS011;55808;48.112;11.552;2022-11-15T05:18:15;154.87;;;92.77;;
68812;SDS011;55808;48.112;11.552;2022-11-15T05:20:41;159.53;;;92.17;;
68812;SDS011;55808;48.112;11.552;2022-11-15T05:23:06;156.93;;;94.40;;
68812;SDS011;55808;48.112;11.552;2022-11-15T05:25:32;163.30;;;93.47;;
68812;SDS011;55808;48.112;11.552;2022-11-15T05:27:58;160.00;;;94.50;;
68812;SDS011;55808;48.112;11.552;2022-11-15T05:30:23;149.37;;;91.77;;
68812;SDS011;55808;48.112;11.552;2022-11-15T05:32:49;164.93;;;94.50;;
68812;SDS011;55808;48.112;11.552;2022-11-15T05:35:20;158.27;;;93.97;;
68812;SDS011;55808;48.112;11.552;2022-11-15T05:37:56;157.48;;;93.18;;
68812;SDS011;55808;48.112;11.552;2022-11-15T05:40:22;162.27;;;94.00;;
68812;SDS011;55808;48.112;11.552;2022-11-15T05:42:48;159.63;;;93.00;;
68812;SDS011;55808;48.112;11.552;2022-11-15T05:45:14;153.90;;;91.60;;
68812;SDS011;55808;48.112;11.552;2022-11-15T05:47:41;156.27;;;92.35;;
68812;SDS011;55808;48.112;11.552;2022-11-15T05:50:07;146.87;;;90.63;;
68812;SDS011;55808;48.112;11.552;2022-11-15T05:52:35;147.88;;;90.20;;
68812;SDS011;55808;48.112;11.552;2022-11-15T05:55:02;159.02;;;93.43;;
68812;SDS011;55808;48.112;11.552;2022-11-15T05:57:30;158.82;;;94.68;;
68812;SDS011;55808;48.112;11.552;2022-11-15T05:59:56;159.30;;;93.30;;
68812;SDS011;55808;48.112;11.552;2022-11-15T06:02:22;154.68;;;92.80;;
68812;SDS011;55808;48.112;11.552;2022-11-15T06:04:48;150.40;;;91.50;;
68812;SDS011;55808;48.112;11.552;2022-11-15T06:07:13;150.53;;;92.40;;
68812;SDS011;55808;48.112;11.552;2022-11-15T06:09:39;190.37;;;101.00;;
68812;SDS011;55808;48.112;11.552;2022-11-15T06:12:04;164.03;;;94.10;;
68812;SDS011;55808;48.112;11.552;2022-11-15T06:14:30;161.50;;;93.37;;
68812;SDS011;55808;48.112;11.552;2022-11-15T06:16:56;156.57;;;93.73;;
68812;SDS011;55808;48.112;11.552;2022-11-15T06:19:22;164.57;;;92.93;;
68812;SDS011;55808;48.112;11.552;2022-11-15T06:21:47;157.43;;;92.50;;
68812;SDS011;55808;48.112;11.552;2022-11-15T06:24:13;150.00;;;92.00;;
68812;SDS011;55808;48.112;11.552;2022-11-15T06:26:38;148.33;;;92.93;;
68812;SDS011;55808;48.112;11.552;2022-11-15T06:29:04;145.50;;;90.53;;
68812;SDS011;55808;48.112;11.552;2022-11-15T06:31:30;161.17;;;94.10;;
68812;SDS011;55808;48.112;11.552;2022-11-15T06:33:56;153.23;;;93.27;;
68812;SDS011;55808;48.112;11.552;2022-11-15T06:36:21;156.30;;;94.43;;
68812;SDS011;55808;48.112;11.552;2022-11-15T06:38:47;140.80;;;91.13;;
68812;SDS011;55808;48.112;11.552;2022-11-15T06:41:13;148.20;;;91.60;;
68812;SDS011;55808;48.112;11.552;2022-11-15T06:43:40;155.35;;;93.75;;
68812;SDS011;55808;48.112;11.552;2022-11-15T06:46:06;149.60;;;92.80;;
68812;SDS011;55808;48.112;11.552;2022-11-15T06:48:33;148.93;;;92.20;;
68812;SDS011;55808;48.112;11.552;2022-11-15T06:51:00;154.75;;;93.35;;
68812;SDS011;55808;48.112;11.552;2022-11-15T06:53:27;156.30;;;92.85;;
68812;SDS011;55808;48.112;11.552;2022-11-15T06:55:53;147.25;;;91.38;;
68812;SDS011;55808;48.112;11.552;2022-11-15T06:58:23;160.63;;;93.35;;
68812;SDS011;55808;48.112;11.552;2022-11-15T07:00:48;163.57;;;94.07;;
68812;SDS011;55808;48.112;11.552;2022-11-15T07:03:14;171.50;;;96.77;;
68812;SDS011;55808;48.112;11.552;2022-11-15T07:05:39;151.60;;;93.17;;
68812;SDS011;55808;48.112;11.552;2022-11-15T07:08:05;147.90;;;91.70;;
68812;SDS011;55808;48.112;11.552;2022-11-15T07:10:31;165.27;;;94.50;;
68812;SDS011;55808;48.112;11.552;2022-11-15T07:12:56;171.00;;;96.63;;
68812;SDS011;55808;48.112;11.552;2022-11-15T07:15:23;172.47;;;97.13;;
68812;SDS011;55808;48.112;11.552;2022-11-15T07:17:51;164.57;;;96.20;;
68812;SDS011;55808;48.112;11.552;2022-11-15T07:20:17;159.20;;;93.27;;
68812;SDS011;55808;48.112;11.552;2022-11-15T07:22:43;176.35;;;97.22;;
68812;SDS011;55808;48.112;11.552;2022-11-15T07:25:12;168.13;;;95.57;;
68812;SDS011;55808;48.112;11.552;2022-11-15T07:27:38;169.00;;;96.57;;
68812;SDS011;55808;48.112;11.552;2022-11-15T07:30:04;177.87;;;97.70;;
68812;SDS011;55808;48.112;11.552;2022-11-15T07:32:30;154.02;;;96.07;;
68812;SDS011;55808;48.112;11.552;2022-11-15T07:34:56;171.80;;;99.00;;
68812;SDS011;55808;48.112;11.552;2022-11-15T07:37:21;158.27;;;96.63;;
68812;SDS011;55808;48.112;11.552;2022-11-15T07:39:47;33.77;;;19.53;;
68812;SDS011;55808;48.112;11.552;2022-11-15T07:42:16;18.43;;;14.40;;
68812;SDS011;55808;48.112;11.552;2022-11-15T07:45:00;241.13;;;108.38;;
68812;SDS011;55808;48.112;11.552;2022-11-15T07:47:27;86.67;;;77.47;;
68812;SDS011;55808;48.112;11.552;2022-11-15T07:49:53;85.25;;;74.35;;
68812;SDS011;55808;48.112;11.552;2022-11-15T07:52:19;226.60;;;101.73;;
68812;SDS011;55808;48.112;11.552;2022-11-15T07:54:45;241.00;;;103.23;;
68812;SDS011;55808;48.112;11.552;2022-11-15T07:57:10;263.70;;;107.73;;
68812;SDS011;55808;48.112;11.552;2022-11-15T07:59:36;239.57;;;102.50;;
68812;SDS011;55808;48.112;11.552;2022-11-15T08:02:01;233.33;;;102.10;;
68812;SDS011;55808;48.112;11.552;2022-11-15T08:04:27;252.80;;;105.27;;
68812;SDS011;55808;48.112;11.552;2022-11-15T08:06:53;237.17;;;102.67;;
68812;SDS011;55808;48.112;11.552;2022-11-15T08:09:18;239.00;;;103.53;;
68812;SDS011;55808;48.112;11.552;2022-11-15T08:11:44;233.70;;;102.23;;
68812;SDS011;55808;48.112;11.552;2022-11-15T08:14:10;240.43;;;103.93;;
68812;SDS011;55808;48.112;11.552;2022-11-15T08:16:35;270.17;;;108.80;;
68812;SDS011;55808;48.112;11.552;2022-11-15T08:19:01;241.13;;;105.03;;
68812;SDS011;55808;48.112;11.552;2022-11-15T08:21:26;248.73;;;110.93;;
68812;SDS011;55808;48.112;11.552;2022-11-15T08:23:52;265.03;;;107.93;;
68812;SDS011;55808;48.112;11.552;2022-11-15T08:26:18;245.63;;;105.07;;
68812;SDS011;55808;48.112;11.552;2022-11-15T08:28:43;245.40;;;104.97;;
68812;SDS011;55808;48.112;11.552;2022-11-15T08:31:12;250.57;;;106.20;;
68812;SDS011;55808;48.112;11.552;2022-11-15T08:33:43;79.40;;;71.93;;
68812;SDS011;55808;48.112;11.552;2022-11-15T08:36:11;66.32;;;60.53;;
68812;SDS011;55808;48.112;11.552;2022-11-15T08:38:39;60.92;;;55.78;;
68812;SDS011;55808;48.112;11.552;2022-11-15T08:41:05;61.03;;;55.83;;
68812;SDS011;55808;48.112;11.552;2022-11-15T08:43:31;56.60;;;52.15;;
68812;SDS011;55808;48.112;11.552;2022-11-15T08:45:57;56.60;;;52.97;;
68812;SDS011;55808;48.112;11.552;2022-11-15T08:48:23;54.25;;;48.80;;
68812;SDS011;55808;48.112;11.552;2022-11-15T08:50:51;52.63;;;47.80;;
68812;SDS011;55808;48.112;11.552;2022-11-15T08:53:19;47.03;;;43.38;;
68812;SDS011;55808;48.112;11.552;2022-11-15T08:55:44;46.40;;;42.47;;
68812;SDS011;55808;48.112;11.552;2022-11-15T08:58:10;42.73;;;40.33;;
68812;SDS011;55808;48.112;11.552;2022-11-15T09:00:36;42.10;;;38.50;;
68812;SDS011;55808;48.112;11.552;2022-11-15T09:03:05;46.00;;;38.53;;
68812;SDS011;55808;48.112;11.552;2022-11-15T09:05:31;37.88;;;35.35;;
68812;SDS011;55808;48.112;11.552;2022-11-15T09:07:56;37.17;;;33.80;;
68812;SDS011;55808;48.112;11.552;2022-11-15T09:10:22;34.13;;;31.80;;
68812;SDS011;55808;48.112;11.552;2022-11-15T09:12:48;33.73;;;30.47;;
68812;SDS011;55808;48.112;11.552;2022-11-15T09:15:14;22.87;;;18.60;;
68812;SDS011;55808;48.112;11.552;2022-11-15T09:17:40;26.52;;;17.67;;
68812;SDS011;55808;48.112;11.552;2022-11-15T09:20:06;16.77;;;15.43;;
68812;SDS011;55808;48.112;11.552;2022-11-15T09:22:33;18.80;;;16.35;;
68812;SDS011;55808;48.112;11.552;2022-11-15T09:24:59;21.58;;;17.23;;
68812;SDS011;55808;48.112;11.552;2022-11-15T09:27:28;20.37;;;15.90;;
68812;SDS011;55808;48.112;11.552;2022-11-15T09:29:54;17.55;;;16.10;;
68812;SDS011;55808;48.112;11.552;2022-11-15T09:32:20;22.53;;;17.10;;
68812;SDS011;55808;48.112;11.552;2022-11-15T09:34:48;17.52;;;15.90;;
68812;SDS011;55808;48.112;11.552;2022-11-15T09:37:14;23.00;;;17.00;;
68812;SDS011;55808;48.112;11.552;2022-11-15T09:39:40;20.90;;;16.43;;
68812;SDS011;55808;48.112;11.552;2022-11-15T09:42:09;17.10;;;15.77;;
68812;SDS011;55808;48.112;11.552;2022-11-15T09:50:21;18.42;;;16.52;;
68812;SDS011;55808;48.112;11.552;2022-11-15T09:52:56;17.10;;;15.65;;
68812;SDS011;55808;48.112;11.552;2022-11-15T09:55:23;17.43;;;15.77;;
68812;SDS011;55808;48.112;11.552;2022-11-15T10:00:36;17.80;;;16.40;;
68812;SDS011;55808;48.112;11.552;2022-11-15T10:03:15;20.13;;;17.95;;
68812;SDS011;55808;48.112;11.552;2022-11-15T10:05:48;21.23;;;17.45;;
68812;SDS011;55808;48.112;11.552;2022-11-15T10:08:25;20.75;;;18.30;;
68812;SDS011;55808;48.112;11.552;2022-11-15T10:11:10;18.07;;;16.53;;
68812;SDS011;55808;48.112;11.552;2022-11-15T10:13:43;20.95;;;18.42;;
68812;SDS011;55808;48.112;11.552;2022-11-15T10:24:25;50.80;;;22.23;;
68812;SDS011;55808;48.112;11.552;2022-11-15T10:26:56;21.75;;;18.55;;
68812;SDS011;55808;48.112;11.552;2022-11-15T10:29:22;28.95;;;17.90;;
68812;SDS011;55808;48.112;11.552;2022-11-15T10:31:49;34.33;;;20.43;;
68812;SDS011;55808;48.112;11.552;2022-11-15T10:34:16;19.80;;;17.93;;
68812;SDS011;55808;48.112;11.552;2022-11-15T10:36:56;18.10;;;16.77;;
68812;SDS011;55808;48.112;11.552;2022-11-15T10:39:24;24.53;;;18.23;;
68812;SDS011;55808;48.112;11.552;2022-11-15T10:41:50;20.50;;;18.30;;
68812;SDS011;55808;48.112;11.552;2022-11-15T10:46:44;20.70;;;18.80;;
68812;SDS011;55808;48.112;11.552;2022-11-15T10:49:23;21.33;;;19.13;;
68812;SDS011;55808;48.112;11.552;2022-11-15T10:51:57;21.20;;;18.90;;
68812;SDS011;55808;48.112;11.552;2022-11-15T10:54:33;21.47;;;19.30;;
68812;SDS011;55808;48.112;11.552;2022-11-15T10:57:13;20.00;;;18.37;;
68812;SDS011;55808;48.112;11.552;2022-11-15T10:59:48;30.20;;;20.60;;
68812;SDS011;55808;48.112;11.552;2022-11-15T11:02:35;23.43;;;19.60;;
68812;SDS011;55808;48.112;11.552;2022-11-15T11:05:07;33.63;;;20.60;;
68812;SDS011;55808;48.112;11.552;2022-11-15T11:07:58;21.57;;;18.47;;
68812;SDS011;55808;48.112;11.552;2022-11-15T11:10:26;29.47;;;20.27;;
68812;SDS011;55808;48.112;11.552;2022-11-15T11:12:52;20.50;;;18.60;;
68812;SDS011;55808;48.112;11.552;2022-11-15T11:15:18;20.50;;;18.73;;
68812;SDS011;55808;48.112;11.552;2022-11-15T11:20:18;22.13;;;19.90;;
68812;SDS011;55808;48.112;11.552;2022-11-15T11:28:31;26.43;;;24.97;;
68812;SDS011;55808;48.112;11.552;2022-11-15T11:37:17;41.00;;;37.93;;
68812;SDS011;55808;48.112;11.552;2022-11-15T11:39:58;45.07;;;42.07;;
68812;SDS011;55808;48.112;11.552;2022-11-15T11:51:23;45.73;;;43.07;;
68812;SDS011;55808;48.112;11.552;2022-11-15T11:54:22;48.03;;;45.17;;
68812;SDS011;55808;48.112;11.552;2022-11-15T11:56:58;47.13;;;44.60;;
68812;SDS011;55808;48.112;11.552;2022-11-15T12:02:02;46.10;;;43.97;;
68812;SDS011;55808;48.112;11.552;2022-11-15T12:04:47;50.40;;;47.90;;
68812;SDS011;55808;48.112;11.552;2022-11-15T12:09:51;48.67;;;46.53;;
68812;SDS011;55808;48.112;11.552;2022-11-15T12:12:35;48.57;;;45.93;;
68812;SDS011;55808;48.112;11.552;2022-11-15T12:18:08;46.33;;;44.10;;
68812;SDS011;55808;48.112;11.552;2022-11-15T12:20:41;49.63;;;47.47;;
68812;SDS011;55808;48.112;11.552;2022-11-15T12:23:39;50.10;;;47.40;;
68812;SDS011;55808;48.112;11.552;2022-11-15T12:26:17;48.97;;;46.67;;
68812;SDS011;55808;48.112;11.552;2022-11-15T12:28:53;47.43;;;45.43;;
68812;SDS011;55808;48.112;11.552;2022-11-15T12:34:00;48.70;;;46.23;;
68812;SDS011;55808;48.112;11.552;2022-11-15T12:36:36;51.47;;;48.33;;
68812;SDS011;55808;48.112;11.552;2022-11-15T12:39:08;48.80;;;46.33;;
68812;SDS011;55808;48.112;11.552;2022-11-15T12:41:42;50.23;;;47.50;;
68812;SDS011;55808;48.112;11.552;2022-11-15T12:44:10;80.83;;;73.10;;
68812;SDS011;55808;48.112;11.552;2022-11-15T12:49:10;67.97;;;63.43;;
68812;SDS011;55808;48.112;11.552;2022-11-15T13:04:51;47.47;;;44.73;;
68812;SDS011;55808;48.112;11.552;2022-11-15T13:12:52;52.47;;;48.80;;
68812;SDS011;55808;48.112;11.552;2022-11-15T13:17:47;158.53;;;127.00;;
68812;SDS011;55808;48.112;11.552;2022-11-15T13:22:40;98.17;;;90.90;;
68812;SDS011;55808;48.112;11.552;2022-11-15T13:28:52;81.83;;;77.00;;
68812;SDS011;55808;48.112;11.552;2022-11-15T13:33:48;82.27;;;77.60;;
68812;SDS011;55808;48.112;11.552;2022-11-15T13:36:23;78.07;;;73.13;;
68812;SDS011;55808;48.112;11.552;2022-11-15T13:38:56;75.70;;;71.57;;
68812;SDS011;55808;48.112;11.552;2022-11-15T13:41:24;73.57;;;68.77;;
68812;SDS011;55808;48.112;11.552;2022-11-15T13:43:54;72.77;;;69.10;;
68812;SDS011;55808;48.112;11.552;2022-11-15T13:46:28;72.63;;;68.97;;
68812;SDS011;55808;48.112;11.552;2022-11-15T13:48:56;75.07;;;70.17;;
68812;SDS011;55808;48.112;11.552;2022-11-15T13:54:07;69.90;;;65.80;;
68812;SDS011;55808;48.112;11.552;2022-11-15T13:56:41;68.30;;;64.40;;
68812;SDS011;55808;48.112;11.552;2022-11-15T13:59:15;68.43;;;64.20;;
68812;SDS011;55808;48.112;11.552;2022-11-15T14:01:49;63.50;;;60.53;;
68812;SDS011;55808;48.112;11.552;2022-11-15T14:04:18;62.70;;;59.60;;
68812;SDS011;55808;48.112;11.552;2022-11-15T14:06:47;67.70;;;63.83;;
68812;SDS011;55808;48.112;11.552;2022-11-15T14:09:28;63.20;;;60.10;;
68812;SDS011;55808;48.112;11.552;2022-11-15T14:11:59;64.53;;;59.20;;
68812;SDS011;55808;48.112;11.552;2022-11-15T14:14:28;59.33;;;55.27;;
68812;SDS011;55808;48.112;11.552;2022-11-15T14:16:58;59.03;;;56.03;;
68812;SDS011;55808;48.112;11.552;2022-11-15T14:25:04;57.63;;;55.03;;
68812;SDS011;55808;48.112;11.552;2022-11-15T14:28:06;56.07;;;53.40;;
68812;SDS011;55808;48.112;11.552;2022-11-15T14:30:47;57.60;;;54.40;;
68812;SDS011;55808;48.112;11.552;2022-11-15T14:36:06;56.33;;;52.33;;
68812;SDS011;55808;48.112;11.552;2022-11-15T14:38:38;55.03;;;51.20;;
68812;SDS011;55808;48.112;11.552;2022-11-15T14:41:04;51.70;;;48.63;;
68812;SDS011;55808;48.112;11.552;2022-11-15T14:43:30;52.57;;;48.03;;
68812;SDS011;55808;48.112;11.552;2022-11-15T14:45:56;50.77;;;47.03;;
68812;SDS011;55808;48.112;11.552;2022-11-15T14:48:22;48.73;;;45.03;;
68812;SDS011;55808;48.112;11.552;2022-11-15T14:50:48;47.43;;;44.30;;
68812;SDS011;55808;48.112;11.552;2022-11-15T14:53:15;46.73;;;42.83;;
68812;SDS011;55808;48.112;11.552;2022-11-15T14:55:42;45.00;;;42.17;;
68812;SDS011;55808;48.112;11.552;2022-11-15T14:58:08;47.23;;;43.10;;
68812;SDS011;55808;48.112;11.552;2022-11-15T15:00:35;45.30;;;41.67;;
68812;SDS011;55808;48.112;11.552;2022-11-15T15:03:02;44.30;;;40.60;;
68812;SDS011;55808;48.112;11.552;2022-11-15T15:05:37;41.87;;;38.50;;
68812;SDS011;55808;48.112;11.552;2022-11-15T15:08:05;39.90;;;37.07;;
68812;SDS011;55808;48.112;11.552;2022-11-15T15:10:32;42.00;;;38.43;;
68812;SDS011;55808;48.112;11.552;2022-11-15T15:12:59;41.07;;;37.90;;
68812;SDS011;55808;48.112;11.552;2022-11-15T15:15:26;41.70;;;38.07;;
68812;SDS011;55808;48.112;11.552;2022-11-15T15:17:56;39.90;;;36.80;;
68812;SDS011;55808;48.112;11.552;2022-11-15T15:20:22;37.47;;;35.00;;
68812;SDS011;55808;48.112;11.552;2022-11-15T15:22:47;36.23;;;33.83;;
68812;SDS011;55808;48.112;11.552;2022-11-15T15:25:23;38.37;;;35.00;;
68812;SDS011;55808;48.112;11.552;2022-11-15T15:27:51;37.83;;;35.10;;
68812;SDS011;55808;48.112;11.552;2022-11-15T15:30:18;38.40;;;35.30;;
68812;SDS011;55808;48.112;11.552;2022-11-15T15:32:44;35.87;;;33.90;;
68812;SDS011;55808;48.112;11.552;2022-11-15T15:35:13;38.10;;;34.97;;
68812;SDS011;55808;48.112;11.552;2022-11-15T15:37:40;35.80;;;33.13;;
68812;SDS011;55808;48.112;11.552;2022-11-15T15:40:25;49.63;;;38.30;;
68812;SDS011;55808;48.112;11.552;2022-11-15T15:42:52;37.80;;;34.57;;
68812;SDS011;55808;48.112;11.552;2022-11-15T15:45:18;34.07;;;32.13;;
68812;SDS011;55808;48.112;11.552;2022-11-15T15:47:44;35.17;;;32.40;;
68812;SDS011;55808;48.112;11.552;2022-11-15T15:50:16;35.50;;;33.60;;
68812;SDS011;55808;48.112;11.552;2022-11-15T15:52:49;34.60;;;32.80;;
68812;SDS011;55808;48.112;11.552;2022-11-15T15:55:16;35.90;;;32.80;;
68812;SDS011;55808;48.112;11.552;2022-11-15T15:57:41;34.90;;;32.70;;
68812;SDS011;55808;48.112;11.552;2022-11-15T16:00:08;34.30;;;31.97;;
68812;SDS011;55808;48.112;11.552;2022-11-15T16:02:34;36.77;;;33.20;;
68812;SDS011;55808;48.112;11.552;2022-11-15T16:05:00;37.00;;;33.77;;
68812;SDS011;55808;48.112;11.552;2022-11-15T16:07:25;35.07;;;32.00;;
68812;SDS011;55808;48.112;11.552;2022-11-15T16:09:53;35.00;;;32.07;;
68812;SDS011;55808;48.112;11.552;2022-11-15T16:12:25;35.60;;;32.57;;
68812;SDS011;55808;48.112;11.552;2022-11-15T16:14:55;36.90;;;33.70;;
68812;SDS011;55808;48.112;11.552;2022-11-15T16:17:21;34.90;;;31.50;;
68812;SDS011;55808;48.112;11.552;2022-11-15T16:19:50;32.23;;;29.67;;
68812;SDS011;55808;48.112;11.552;2022-11-15T16:22:16;36.97;;;31.80;;
68812;SDS011;55808;48.112;11.552;2022-11-15T16:24:41;32.33;;;29.60;;